createdAt,value
2022-07-31T00:00:16.819Z,6.28
2022-07-31T00:02:44.631Z,2.60
2022-07-31T00:05:11.482Z,3.38
2022-07-31T00:07:38.130Z,2.20
2022-07-31T00:10:05.763Z,5.53
2022-07-31T00:12:32.373Z,5.47
2022-07-31T00:15:04.133Z,3.65
2022-07-31T00:17:32.355Z,2.67
2022-07-31T00:19:58.834Z,5.97
2022-07-31T00:22:25.294Z,4.20
2022-07-31T00:24:51.801Z,5.38
2022-07-31T00:27:18.314Z,1.92
2022-07-31T00:29:44.794Z,7.53
2022-07-31T00:32:11.539Z,3.55
2022-07-31T00:34:38.113Z,3.88
2022-07-31T00:37:05.199Z,5.57
2022-07-31T00:39:32.632Z,4.68
2022-07-31T00:41:59.255Z,5.35
2022-07-31T00:44:26.040Z,4.53
2022-07-31T00:46:52.745Z,4.30
2022-07-31T00:49:20.037Z,3.33
2022-07-31T00:51:47.074Z,5.22
2022-07-31T00:54:16.290Z,5.47
2022-07-31T00:56:49.084Z,4.15
2022-07-31T00:59:15.674Z,4.50
2022-07-31T01:01:42.157Z,4.70
2022-07-31T01:04:08.653Z,4.78
2022-07-31T01:06:42.786Z,5.25
2022-07-31T01:09:09.537Z,4.00
2022-07-31T01:11:44.708Z,6.40
2022-07-31T01:14:12.136Z,5.03
2022-07-31T01:16:46.862Z,3.20
2022-07-31T01:19:43.634Z,2.65
2022-07-31T01:22:34.242Z,2.58
2022-07-31T01:25:21.290Z,2.65
2022-07-31T01:27:50.683Z,4.00
2022-07-31T01:32:49.309Z,4.18
2022-07-31T01:35:20.631Z,4.85
2022-07-31T01:38:07.858Z,4.10
2022-07-31T01:40:38.134Z,3.63
2022-07-31T01:43:11.663Z,11.38
2022-07-31T01:45:42.785Z,7.22
2022-07-31T01:48:15.857Z,6.00
2022-07-31T01:50:45.011Z,4.78
2022-07-31T01:53:15.213Z,4.80
2022-07-31T01:56:02.340Z,4.60
2022-07-31T01:58:34.945Z,4.93
2022-07-31T02:01:03.798Z,4.30
2022-07-31T02:03:44.530Z,3.67
2022-07-31T02:06:18.169Z,4.10
2022-07-31T02:08:50.541Z,3.47
2022-07-31T02:11:19.478Z,5.70
2022-07-31T02:13:47.330Z,4.20
2022-07-31T02:16:16.510Z,5.20
2022-07-31T02:18:43.570Z,6.65
2022-07-31T02:21:10.622Z,8.27
2022-07-31T02:23:38.545Z,4.78
2022-07-31T02:26:07.054Z,4.25
2022-07-31T02:28:38.012Z,4.55
2022-07-31T02:31:10.187Z,4.30
2022-07-31T02:33:38.214Z,4.57
2022-07-31T02:36:06.749Z,4.95
2022-07-31T02:38:35.138Z,7.03
2022-07-31T02:41:04.731Z,4.57
2022-07-31T02:43:33.255Z,5.47
2022-07-31T02:46:00.520Z,3.53
2022-07-31T02:48:27.777Z,3.70
2022-07-31T02:50:54.951Z,6.40
2022-07-31T02:53:22.102Z,9.43
2022-07-31T02:55:50.514Z,7.72
2022-07-31T02:58:17.139Z,5.15
2022-07-31T03:00:43.764Z,5.15
2022-07-31T03:03:10.290Z,4.55
2022-07-31T03:05:36.782Z,5.15
2022-07-31T03:08:03.326Z,6.05
2022-07-31T03:10:29.954Z,5.15
2022-07-31T03:12:58.261Z,6.88
2022-07-31T03:15:27.379Z,5.05
2022-07-31T03:17:54.865Z,6.85
2022-07-31T03:20:22.274Z,6.28
2022-07-31T03:22:49.620Z,7.40
2022-07-31T03:25:21.923Z,4.05
2022-07-31T03:27:55.948Z,4.78
2022-07-31T03:30:26.552Z,4.68
2022-07-31T03:32:54.918Z,7.07
2022-07-31T03:35:22.319Z,6.43
2022-07-31T03:37:49.533Z,5.70
2022-07-31T03:40:16.066Z,6.32
2022-07-31T03:42:43.378Z,7.20
2022-07-31T03:45:12.117Z,10.05
2022-07-31T03:47:38.660Z,9.95
2022-07-31T03:50:06.665Z,8.68
2022-07-31T03:52:33.490Z,10.00
2022-07-31T03:55:00.066Z,14.13
2022-07-31T03:57:29.053Z,14.93
2022-07-31T03:59:59.331Z,10.77
2022-07-31T04:02:27.447Z,7.57
2022-07-31T04:04:55.178Z,6.95
2022-07-31T04:07:21.643Z,11.60
2022-07-31T04:09:48.269Z,12.27
2022-07-31T04:12:14.989Z,6.72
2022-07-31T04:14:41.691Z,8.23
2022-07-31T04:17:08.570Z,9.77
2022-07-31T04:19:35.218Z,6.53
2022-07-31T04:22:02.546Z,6.78
2022-07-31T04:24:29.290Z,5.82
2022-07-31T04:26:56.971Z,6.88
2022-07-31T04:29:24.236Z,6.43
2022-07-31T04:31:51.012Z,7.65
2022-07-31T04:34:17.730Z,9.48
2022-07-31T04:36:44.226Z,7.85
2022-07-31T04:39:10.715Z,7.53
2022-07-31T04:41:37.305Z,8.82
2022-07-31T04:44:03.851Z,8.93
2022-07-31T04:46:30.358Z,6.75
2022-07-31T04:48:56.973Z,6.32
2022-07-31T04:51:24.743Z,7.85
2022-07-31T04:53:52.354Z,6.47
2022-07-31T04:56:37.316Z,9.05
2022-07-31T04:59:09.500Z,12.13
2022-07-31T05:01:36.573Z,7.25
2022-07-31T05:04:03.561Z,6.32
2022-07-31T05:06:35.362Z,8.15
2022-07-31T05:09:05.553Z,9.35
2022-07-31T05:11:36.352Z,9.05
2022-07-31T05:14:05.173Z,7.70
2022-07-31T05:16:33.575Z,9.32
2022-07-31T05:19:00.300Z,9.65
2022-07-31T05:21:27.187Z,8.25
2022-07-31T05:23:55.077Z,11.35
2022-07-31T05:26:22.026Z,9.00
2022-07-31T05:28:49.614Z,6.50
2022-07-31T05:31:18.205Z,10.20
2022-07-31T05:33:45.582Z,7.33
2022-07-31T05:36:12.775Z,10.93
2022-07-31T05:38:39.693Z,8.35
2022-07-31T05:41:06.332Z,8.43
2022-07-31T05:43:33.119Z,6.78
2022-07-31T05:45:59.728Z,9.38
2022-07-31T05:48:26.185Z,6.60
2022-07-31T05:50:52.768Z,8.13
2022-07-31T05:53:20.333Z,8.82
2022-07-31T05:55:49.125Z,7.65
2022-07-31T05:58:17.195Z,8.93
2022-07-31T06:00:46.315Z,7.13
2022-07-31T06:03:13.434Z,6.53
2022-07-31T06:05:41.175Z,7.55
2022-07-31T06:08:09.622Z,13.63
2022-07-31T06:10:37.373Z,8.32
2022-07-31T06:13:05.259Z,6.20
2022-07-31T06:15:36.354Z,6.03
2022-07-31T06:18:04.028Z,4.95
2022-07-31T06:20:30.981Z,9.55
2022-07-31T06:22:57.582Z,8.02
2022-07-31T06:25:24.231Z,6.57
2022-07-31T06:27:59.207Z,8.80
2022-07-31T06:30:27.996Z,11.68
2022-07-31T06:32:54.724Z,6.88
2022-07-31T06:35:21.265Z,8.23
2022-07-31T06:37:47.851Z,5.60
2022-07-31T06:40:14.578Z,11.02
2022-07-31T06:42:41.906Z,8.07
2022-07-31T06:45:09.358Z,8.95
2022-07-31T06:47:35.984Z,7.63
2022-07-31T06:50:03.646Z,6.13
2022-07-31T06:52:30.127Z,5.95
2022-07-31T06:54:56.607Z,6.60
2022-07-31T06:57:23.115Z,7.25
2022-07-31T06:59:49.621Z,6.90
2022-07-31T07:02:16.382Z,7.30
2022-07-31T07:04:56.320Z,5.47
2022-07-31T07:07:31.657Z,4.68
2022-07-31T07:09:58.852Z,5.82
2022-07-31T07:12:25.371Z,5.50
2022-07-31T07:14:53.505Z,3.83
2022-07-31T07:17:20.027Z,5.68
2022-07-31T07:19:46.695Z,8.90
2022-07-31T07:22:31.982Z,5.20
2022-07-31T07:25:00.352Z,4.35
2022-07-31T07:27:27.013Z,4.30
2022-07-31T07:29:53.523Z,8.00
2022-07-31T07:32:20.139Z,4.65
2022-07-31T07:34:46.607Z,6.55
2022-07-31T07:37:13.254Z,6.20
2022-07-31T07:39:39.722Z,5.00
2022-07-31T07:42:06.656Z,6.50
2022-07-31T07:44:34.060Z,7.18
2022-07-31T07:47:00.531Z,4.82
2022-07-31T07:49:27.100Z,6.32
2022-07-31T07:51:59.152Z,4.70
2022-07-31T07:54:36.336Z,4.57
2022-07-31T07:57:02.913Z,8.52
2022-07-31T07:59:29.401Z,6.50
2022-07-31T08:01:56.391Z,4.60
2022-07-31T08:04:22.908Z,5.25
2022-07-31T08:06:49.377Z,7.45
2022-07-31T08:09:15.903Z,6.50
2022-07-31T08:11:42.578Z,4.90
2022-07-31T08:14:09.588Z,3.38
2022-07-31T08:16:36.092Z,6.93
2022-07-31T08:19:02.707Z,4.82
2022-07-31T08:21:29.225Z,5.03
2022-07-31T08:23:55.819Z,4.82
2022-07-31T08:26:22.705Z,5.40
2022-07-31T08:28:54.849Z,5.72
2022-07-31T08:31:22.662Z,5.27
2022-07-31T08:33:49.171Z,4.07
2022-07-31T08:36:15.805Z,4.70
2022-07-31T08:38:42.291Z,4.15
2022-07-31T08:41:08.817Z,3.90
2022-07-31T08:44:00.618Z,4.10
2022-07-31T08:46:24.569Z,5.07
2022-07-31T08:48:54.482Z,4.40
2022-07-31T08:51:24.026Z,4.00
2022-07-31T08:53:54.489Z,3.17
2022-07-31T08:56:22.117Z,24.42
2022-07-31T08:58:48.690Z,4.18
2022-07-31T09:01:15.372Z,5.70
2022-07-31T09:03:42.210Z,7.13
2022-07-31T09:06:08.751Z,3.65
2022-07-31T09:08:36.949Z,6.00
2022-07-31T09:11:09.212Z,4.35
2022-07-31T09:13:36.022Z,3.65
2022-07-31T09:16:03.930Z,3.45
2022-07-31T09:18:31.205Z,7.35
2022-07-31T09:20:57.695Z,5.00
2022-07-31T09:23:26.538Z,5.90
2022-07-31T09:25:55.716Z,5.72
2022-07-31T09:28:35.718Z,7.32
2022-07-31T09:31:04.347Z,7.35
2022-07-31T09:33:32.014Z,7.13
2022-07-31T09:35:59.769Z,6.97
2022-07-31T09:38:44.706Z,3.92
2022-07-31T09:41:56.398Z,5.05
2022-07-31T09:44:10.156Z,6.13
2022-07-31T09:46:41.360Z,3.05
2022-07-31T09:49:08.057Z,5.20
2022-07-31T09:51:54.138Z,7.07
2022-07-31T09:54:25.673Z,5.93
2022-07-31T09:56:54.784Z,3.92
2022-07-31T10:01:49.022Z,6.55
2022-07-31T10:04:20.661Z,6.10
2022-07-31T10:06:49.230Z,4.82
2022-07-31T10:09:18.983Z,6.38
2022-07-31T10:11:48.680Z,5.95
2022-07-31T10:14:24.042Z,2.90
2022-07-31T10:16:56.290Z,4.45
2022-07-31T10:19:23.671Z,5.22
2022-07-31T10:21:59.708Z,4.25
2022-07-31T10:24:30.124Z,4.43
2022-07-31T10:27:10.518Z,4.15
2022-07-31T10:29:39.355Z,7.78
2022-07-31T10:32:07.704Z,6.35
2022-07-31T10:34:35.272Z,6.53
2022-07-31T10:37:15.103Z,6.38
2022-07-31T10:40:03.854Z,5.30
2022-07-31T10:42:48.578Z,3.25
2022-07-31T10:45:17.356Z,5.53
2022-07-31T10:48:13.385Z,4.40
2022-07-31T10:50:39.913Z,7.18
2022-07-31T10:53:12.588Z,4.07
2022-07-31T10:55:39.697Z,4.20
2022-07-31T10:58:15.468Z,3.10
2022-07-31T11:00:43.108Z,4.05
2022-07-31T11:03:16.706Z,6.75
2022-07-31T11:06:02.549Z,3.88
2022-07-31T11:08:44.467Z,4.22
2022-07-31T11:11:11.497Z,5.55
2022-07-31T11:13:58.104Z,4.32
2022-07-31T11:16:29.076Z,5.15
2022-07-31T11:19:06.851Z,5.07
2022-07-31T11:21:39.753Z,4.88
2022-07-31T11:24:17.283Z,6.07
2022-07-31T11:26:51.492Z,5.22
2022-07-31T11:29:59.799Z,6.90
2022-07-31T11:32:26.439Z,3.95
2022-07-31T11:34:55.408Z,6.22
2022-07-31T11:37:35.296Z,4.32
2022-07-31T11:40:13.605Z,2.55
2022-07-31T11:42:59.782Z,4.13
2022-07-31T11:45:33.476Z,4.40
2022-07-31T11:48:12.394Z,2.83
2022-07-31T11:50:44.590Z,5.03
2022-07-31T11:53:12.055Z,3.60
2022-07-31T11:55:48.750Z,4.70
2022-07-31T11:58:16.878Z,4.22
2022-07-31T12:00:53.630Z,4.70
2022-07-31T12:03:23.501Z,6.90
2022-07-31T12:05:54.995Z,4.05
2022-07-31T12:08:24.232Z,3.28
2022-07-31T12:13:22.664Z,3.78
2022-07-31T12:16:09.435Z,4.25
2022-07-31T12:18:59.052Z,6.00
2022-07-31T12:21:37.652Z,6.50
2022-07-31T12:24:12.511Z,4.00
2022-07-31T12:26:42.869Z,3.78
2022-07-31T12:29:11.509Z,5.78
2022-07-31T12:31:49.776Z,2.53
2022-07-31T12:34:30.191Z,1.73
2022-07-31T12:36:58.714Z,2.90
2022-07-31T12:39:53.781Z,2.60
2022-07-31T12:42:30.342Z,3.13
2022-07-31T12:44:58.916Z,2.60
2022-07-31T12:47:31.701Z,2.20
2022-07-31T12:49:59.336Z,3.55
2022-07-31T12:52:31.415Z,6.05
2022-07-31T12:54:58.707Z,2.65
2022-07-31T12:57:26.208Z,6.07
2022-07-31T12:59:54.438Z,3.30
2022-07-31T13:02:24.267Z,4.00
2022-07-31T13:04:50.771Z,5.03
2022-07-31T13:07:17.326Z,4.97
2022-07-31T13:09:44.988Z,3.80
2022-07-31T13:12:31.468Z,2.40
2022-07-31T13:14:57.958Z,2.40
2022-07-31T13:17:24.826Z,4.72
2022-07-31T13:19:51.277Z,3.97
2022-07-31T13:22:20.133Z,2.28
2022-07-31T13:24:47.062Z,4.75
2022-07-31T13:27:14.635Z,5.22
2022-07-31T13:29:41.362Z,2.80
2022-07-31T13:32:08.927Z,2.60
2022-07-31T13:34:35.969Z,4.30
2022-07-31T13:37:02.828Z,4.05
2022-07-31T13:39:29.549Z,3.17
2022-07-31T13:41:55.967Z,3.83
2022-07-31T13:44:22.422Z,8.15
2022-07-31T13:46:48.937Z,3.67
2022-07-31T13:49:15.640Z,4.63
2022-07-31T13:51:42.268Z,4.45
2022-07-31T13:54:08.783Z,5.35
2022-07-31T13:56:42.350Z,4.10
2022-07-31T13:59:11.669Z,3.92
2022-07-31T14:02:02.775Z,10.00
2022-07-31T14:04:32.378Z,3.65
2022-07-31T14:07:01.344Z,6.25
2022-07-31T14:09:30.410Z,4.35
2022-07-31T14:11:57.066Z,4.53
2022-07-31T14:14:24.015Z,5.18
2022-07-31T14:16:51.003Z,7.65
2022-07-31T14:19:17.719Z,4.07
2022-07-31T14:21:56.057Z,4.25
2022-07-31T14:24:24.389Z,6.63
2022-07-31T14:26:50.843Z,4.25
2022-07-31T14:29:17.485Z,4.32
2022-07-31T14:31:43.954Z,7.18
2022-07-31T14:34:10.471Z,8.35
2022-07-31T14:36:36.950Z,3.42
2022-07-31T14:39:03.533Z,4.50
2022-07-31T14:41:32.678Z,5.13
2022-07-31T14:43:59.389Z,7.07
2022-07-31T14:46:25.883Z,6.80
2022-07-31T14:48:52.521Z,4.05
2022-07-31T14:51:19.483Z,6.97
2022-07-31T14:53:46.831Z,4.80
2022-07-31T14:56:13.513Z,5.35
2022-07-31T14:58:57.821Z,5.68
2022-07-31T15:01:26.870Z,5.82
2022-07-31T15:03:57.888Z,5.30
2022-07-31T15:06:49.264Z,5.28
2022-07-31T15:09:11.321Z,3.80
2022-07-31T15:12:00.526Z,4.00
2022-07-31T15:14:24.422Z,3.83
2022-07-31T15:16:50.910Z,4.05
2022-07-31T15:19:17.643Z,4.15
2022-07-31T15:22:15.827Z,6.85
2022-07-31T15:24:34.623Z,4.10
2022-07-31T15:27:01.947Z,4.32
2022-07-31T15:30:05.554Z,3.55
2022-07-31T15:32:17.799Z,4.80
2022-07-31T15:34:44.914Z,4.90
2022-07-31T15:37:11.558Z,3.95
2022-07-31T15:40:02.502Z,6.75
2022-07-31T15:42:31.867Z,5.85
2022-07-31T15:44:58.472Z,4.57
2022-07-31T15:47:25.253Z,8.35
2022-07-31T15:49:51.813Z,5.25
2022-07-31T15:52:19.554Z,5.18
2022-07-31T15:54:47.526Z,5.30
2022-07-31T15:57:19.350Z,6.80
2022-07-31T15:59:46.569Z,5.07
2022-07-31T16:02:13.451Z,4.07
2022-07-31T16:04:52.534Z,5.82
2022-07-31T16:08:30.982Z,6.22
2022-07-31T16:10:17.939Z,7.30
2022-07-31T16:12:45.692Z,5.60
2022-07-31T16:15:12.930Z,6.75
2022-07-31T16:17:40.274Z,3.83
2022-07-31T16:20:20.632Z,3.88
2022-07-31T16:23:00.822Z,5.78
2022-07-31T16:25:29.068Z,3.75
2022-07-31T16:27:55.889Z,4.27
2022-07-31T16:30:22.908Z,5.20
2022-07-31T16:32:50.067Z,3.97
2022-07-31T16:35:16.655Z,3.85
2022-07-31T16:37:51.016Z,6.68
2022-07-31T16:40:28.929Z,7.15
2022-07-31T16:43:49.453Z,5.70
2022-07-31T16:45:55.094Z,5.63
2022-07-31T16:48:21.858Z,4.22
2022-07-31T16:50:54.095Z,3.38
2022-07-31T16:54:12.125Z,3.70
2022-07-31T16:56:12.937Z,6.20
2022-07-31T16:58:39.804Z,4.97
2022-07-31T17:01:06.369Z,6.47
2022-07-31T17:04:01.650Z,3.70
2022-07-31T17:06:35.885Z,5.78
2022-07-31T17:09:16.266Z,3.45
2022-07-31T17:11:46.522Z,5.38
2022-07-31T17:14:13.101Z,4.25
2022-07-31T17:16:43.459Z,4.03
2022-07-31T17:19:13.201Z,3.88
2022-07-31T17:21:43.967Z,6.07
2022-07-31T17:24:15.856Z,4.30
2022-07-31T17:26:43.570Z,6.00
2022-07-31T17:29:10.163Z,6.13
2022-07-31T17:31:36.664Z,8.05
2022-07-31T17:34:07.303Z,13.10
2022-07-31T17:36:35.878Z,6.70
2022-07-31T17:39:03.416Z,5.07
2022-07-31T17:41:30.466Z,4.25
2022-07-31T17:43:58.095Z,4.70
2022-07-31T17:46:29.338Z,7.28
2022-07-31T17:49:04.905Z,6.78
2022-07-31T17:51:32.210Z,12.10
2022-07-31T17:53:59.266Z,10.55
2022-07-31T17:56:26.652Z,14.52
2022-07-31T17:58:53.317Z,15.73
2022-07-31T18:01:19.877Z,10.60
2022-07-31T18:03:46.437Z,9.43
2022-07-31T18:06:12.947Z,9.50
2022-07-31T18:08:39.442Z,11.13
2022-07-31T18:11:09.399Z,9.13
2022-07-31T18:13:48.174Z,11.02
2022-07-31T18:16:17.511Z,10.30
2022-07-31T18:18:44.861Z,8.35
2022-07-31T18:21:11.984Z,12.32
2022-07-31T18:23:47.149Z,10.10
2022-07-31T18:26:15.135Z,8.77
2022-07-31T18:28:43.127Z,9.40
2022-07-31T18:31:15.530Z,10.32
2022-07-31T18:33:57.615Z,11.02
2022-07-31T18:36:24.108Z,10.32
2022-07-31T18:38:52.046Z,9.75
2022-07-31T18:41:23.054Z,11.90
2022-07-31T18:43:50.201Z,12.70
2022-07-31T18:46:17.004Z,12.40
2022-07-31T18:48:44.415Z,12.30
2022-07-31T18:51:11.390Z,12.77
2022-07-31T18:53:37.925Z,10.30
2022-07-31T18:56:04.890Z,10.52
2022-07-31T18:58:31.931Z,13.43
2022-07-31T19:00:58.761Z,10.68
2022-07-31T19:03:26.588Z,11.52
2022-07-31T19:05:54.625Z,11.00
2022-07-31T19:08:21.788Z,10.20
2022-07-31T19:10:55.561Z,12.40
2022-07-31T19:13:23.554Z,13.60
2022-07-31T19:15:53.223Z,10.18
2022-07-31T19:21:15.945Z,10.45
2022-07-31T19:23:43.355Z,11.77
2022-07-31T19:26:09.857Z,12.40
2022-07-31T19:28:38.064Z,10.13
2022-07-31T19:31:04.551Z,11.25
2022-07-31T19:33:31.376Z,12.45
2022-07-31T19:36:01.938Z,13.90
2022-07-31T19:38:31.141Z,11.23
2022-07-31T19:40:57.801Z,14.90
2022-07-31T19:43:24.324Z,15.45
2022-07-31T19:46:10.741Z,14.02
2022-07-31T19:48:39.629Z,10.20
2022-07-31T19:51:06.535Z,11.00
2022-07-31T19:53:33.105Z,7.88
2022-07-31T19:56:01.885Z,7.93
2022-07-31T19:58:28.396Z,7.10
2022-07-31T20:00:54.935Z,6.65
2022-07-31T20:03:21.525Z,7.13
2022-07-31T20:05:48.028Z,6.90
2022-07-31T20:08:14.491Z,6.72
2022-07-31T20:10:41.034Z,5.93
2022-07-31T20:13:07.514Z,5.93
2022-07-31T20:15:51.537Z,5.68
2022-07-31T20:18:27.582Z,6.07
2022-07-31T20:21:03.679Z,5.50
2022-07-31T20:23:31.100Z,7.13
2022-07-31T20:25:58.628Z,6.43
2022-07-31T20:28:26.459Z,6.43
2022-07-31T20:30:53.318Z,6.07
2022-07-31T20:33:20.302Z,6.72
2022-07-31T20:35:49.213Z,6.57
2022-07-31T20:38:20.481Z,6.53
2022-07-31T20:40:53.776Z,6.90
2022-07-31T20:43:26.475Z,8.52
2022-07-31T20:45:53.728Z,7.53
2022-07-31T20:48:23.871Z,8.25
2022-07-31T20:50:51.203Z,6.80
2022-07-31T20:53:17.709Z,8.23
2022-07-31T20:55:49.330Z,6.28
2022-07-31T20:58:18.010Z,8.30
2022-07-31T21:00:45.436Z,8.02
2022-07-31T21:03:12.021Z,7.50
2022-07-31T21:05:38.588Z,9.25
2022-07-31T21:08:05.491Z,7.05
2022-07-31T21:10:32.028Z,6.97
2022-07-31T21:12:58.576Z,11.05
2022-07-31T21:15:40.721Z,7.53
2022-07-31T21:18:08.148Z,8.05
2022-07-31T21:20:51.384Z,6.20
2022-07-31T21:23:22.054Z,9.38
2022-07-31T21:25:48.882Z,7.00
2022-07-31T21:28:15.624Z,7.45
2022-07-31T21:30:42.283Z,7.90
2022-07-31T21:33:09.922Z,8.27
2022-07-31T21:35:37.564Z,6.88
2022-07-31T21:38:05.014Z,9.98
2022-07-31T21:40:36.049Z,7.30
2022-07-31T21:43:03.426Z,7.85
2022-07-31T21:45:51.035Z,8.27
2022-07-31T21:48:19.713Z,7.82
2022-07-31T21:50:46.674Z,10.48
2022-07-31T21:53:14.206Z,8.60
2022-07-31T21:55:41.037Z,8.98
2022-07-31T21:58:08.884Z,9.23
2022-07-31T22:00:35.496Z,9.55
2022-07-31T22:03:02.856Z,10.25
2022-07-31T22:05:48.723Z,10.85
2022-07-31T22:08:15.279Z,10.00
2022-07-31T22:10:42.130Z,10.63
2022-07-31T22:13:08.742Z,10.50
2022-07-31T22:15:55.560Z,12.10
2022-07-31T22:18:22.092Z,9.95
2022-07-31T22:20:48.727Z,11.15
2022-07-31T22:23:15.534Z,9.68
2022-07-31T22:25:42.957Z,10.75
2022-07-31T22:28:09.967Z,9.90
2022-07-31T22:30:36.646Z,11.93
2022-07-31T22:33:04.852Z,12.80
2022-07-31T22:35:32.460Z,11.65
2022-07-31T22:37:58.979Z,10.73
2022-07-31T22:40:25.616Z,16.58
2022-07-31T22:42:57.453Z,12.73
2022-07-31T22:45:25.279Z,12.48
2022-07-31T22:47:52.035Z,12.63
2022-07-31T22:50:18.588Z,13.82
2022-07-31T22:52:45.156Z,12.77
2022-07-31T22:55:13.598Z,13.57
2022-07-31T22:57:43.618Z,10.25
2022-07-31T23:00:13.167Z,9.35
2022-07-31T23:02:41.203Z,12.18
2022-07-31T23:05:08.976Z,9.35
2022-07-31T23:07:35.616Z,9.45
2022-07-31T23:10:02.420Z,9.90
2022-07-31T23:12:29.632Z,11.10
2022-07-31T23:14:56.461Z,10.65
2022-07-31T23:17:23.628Z,9.88
2022-07-31T23:19:54.191Z,13.38
2022-07-31T23:22:33.798Z,13.93
2022-07-31T23:25:05.232Z,14.10
2022-07-31T23:27:33.095Z,16.88
2022-07-31T23:30:00.029Z,18.13
2022-07-31T23:32:27.690Z,15.73
2022-07-31T23:34:54.546Z,18.90
2022-07-31T23:37:21.260Z,19.35
2022-07-31T23:39:47.773Z,20.73
2022-07-31T23:42:33.181Z,20.35
2022-07-31T23:44:59.754Z,20.65
2022-07-31T23:47:27.967Z,19.30
2022-07-31T23:50:11.790Z,23.08
2022-07-31T23:52:38.296Z,22.77
2022-07-31T23:55:05.061Z,23.70
2022-07-31T23:57:34.161Z,17.90
